Airport ID:KSMD
Update Time (UTC):29/02/2020 01:52
Wind Speed (Knots):6
Wind Direction (Magnetic):260
Temperature (°C):-8
Dew Point (°C):-13.6
Humidity (%):65
Altimeter (inHg):30.06
Density Altitude (Feet):
Visibility (Miles):10
Clouds (Hundreds of feet):\\\\
Present Weather:
METAR:METAR KSMD 290150Z AUTO 25005KT 10SM M08/M14 A3006 RMK A01

The data displayed is for advisory purposes only and is not to be used for flight planning or operations.

This page is not automatically refreshed. Reload the page to see current data.